createdAt,value
2023-02-07T00:01:52.828Z,64.09
2023-02-07T00:04:25.722Z,64.02
2023-02-07T00:06:56.434Z,63.63
2023-02-07T00:09:27.120Z,63.65
2023-02-07T00:11:57.778Z,63.78
2023-02-07T00:14:28.574Z,63.65
2023-02-07T00:16:59.280Z,63.59
2023-02-07T00:19:29.989Z,63.51
2023-02-07T00:22:00.672Z,63.39
2023-02-07T00:24:31.270Z,63.47
2023-02-07T00:27:04.462Z,63.70
2023-02-07T00:29:35.493Z,63.51
2023-02-07T00:32:04.840Z,63.14
2023-02-07T00:34:35.774Z,63.21
2023-02-07T00:37:07.085Z,63.21
2023-02-07T00:39:38.055Z,63.23
2023-02-07T00:42:08.977Z,63.29
2023-02-07T00:44:38.214Z,63.63
2023-02-07T00:47:08.944Z,63.79
2023-02-07T00:49:39.632Z,63.72
2023-02-07T00:52:10.500Z,63.14
2023-02-07T00:54:41.178Z,63.03
2023-02-07T00:57:12.226Z,63.51
2023-02-07T00:59:41.330Z,63.90
2023-02-07T01:02:12.013Z,64.12
2023-02-07T01:04:42.800Z,63.65
2023-02-07T01:07:13.481Z,63.79
2023-02-07T01:09:44.283Z,63.81
2023-02-07T01:12:14.996Z,63.55
2023-02-07T01:14:45.656Z,63.11
2023-02-07T01:17:16.349Z,63.32
2023-02-07T01:19:47.100Z,64.02
2023-02-07T01:22:17.801Z,64.26
2023-02-07T01:24:48.516Z,64.40
2023-02-07T01:27:19.172Z,64.43
2023-02-07T01:29:50.503Z,64.64
2023-02-07T01:32:21.234Z,64.53
2023-02-07T01:34:51.897Z,64.69
2023-02-07T01:37:22.594Z,64.41
2023-02-07T01:39:53.312Z,63.84
2023-02-07T01:42:42.999Z,63.71
2023-02-07T01:45:28.081Z,63.86
2023-02-07T01:48:03.980Z,64.42
2023-02-07T01:50:35.438Z,64.53
2023-02-07T01:53:07.554Z,64.46
2023-02-07T01:55:40.172Z,64.82
2023-02-07T01:58:11.269Z,64.55
2023-02-07T02:00:42.368Z,64.63
2023-02-07T02:03:13.131Z,64.53
2023-02-07T02:05:45.828Z,64.48
2023-02-07T02:08:16.446Z,64.09
2023-02-07T02:11:02.085Z,64.08
2023-02-07T02:13:40.711Z,64.19
2023-02-07T02:16:20.321Z,63.96
2023-02-07T02:19:26.250Z,63.62
2023-02-07T02:22:19.022Z,63.38
2023-02-07T02:25:37.689Z,63.72
2023-02-07T02:28:30.509Z,63.76
2023-02-07T02:31:31.624Z,63.75
2023-02-07T02:34:07.632Z,63.76
2023-02-07T02:36:48.259Z,63.54
2023-02-07T02:39:27.923Z,63.96
2023-02-07T02:42:04.324Z,64.13
2023-02-07T02:44:42.630Z,64.05
2023-02-07T02:47:13.994Z,64.11
2023-02-07T02:49:45.914Z,64.02
2023-02-07T02:52:16.657Z,64.15
2023-02-07T02:54:47.261Z,64.13
2023-02-07T02:57:48.204Z,64.06
2023-02-07T03:00:57.677Z,63.71
2023-02-07T03:03:59.738Z,63.54
2023-02-07T03:06:41.743Z,63.47
2023-02-07T03:09:25.422Z,63.50
2023-02-07T03:12:19.020Z,63.06
2023-02-07T03:14:58.490Z,63.62
2023-02-07T03:17:34.652Z,64.01
2023-02-07T03:20:16.450Z,64.36
2023-02-07T03:22:48.349Z,64.39
2023-02-07T03:25:21.061Z,64.06
2023-02-07T03:27:53.411Z,64.02
2023-02-07T03:30:28.730Z,63.95
2023-02-07T03:33:05.822Z,63.43
2023-02-07T03:35:41.080Z,63.50
2023-02-07T03:38:12.011Z,63.58
2023-02-07T03:40:46.763Z,63.54
2023-02-07T03:43:22.556Z,64.03
2023-02-07T03:45:53.265Z,64.00
2023-02-07T03:48:24.629Z,64.05
2023-02-07T03:50:55.728Z,63.77
2023-02-07T03:53:24.819Z,63.56
2023-02-07T03:55:55.438Z,63.47
2023-02-07T03:58:26.086Z,63.44
2023-02-07T04:00:56.729Z,63.48
2023-02-07T04:03:27.584Z,63.39
2023-02-07T04:05:56.843Z,63.21
2023-02-07T04:08:27.536Z,63.27
2023-02-07T04:11:02.464Z,63.13
2023-02-07T04:13:33.242Z,63.25
2023-02-07T04:16:04.599Z,63.13
2023-02-07T04:18:35.639Z,63.31
2023-02-07T04:21:08.610Z,63.50
2023-02-07T04:23:39.272Z,63.24
2023-02-07T04:26:09.902Z,63.26
2023-02-07T04:28:40.572Z,63.32
2023-02-07T04:31:11.255Z,63.48
2023-02-07T04:33:42.008Z,63.34
2023-02-07T04:36:12.833Z,63.48
2023-02-07T04:38:43.940Z,63.60
2023-02-07T04:41:12.964Z,63.04
2023-02-07T04:43:43.668Z,62.78
2023-02-07T04:46:14.319Z,62.85
2023-02-07T04:48:45.028Z,62.81
2023-02-07T04:51:15.255Z,63.04
2023-02-07T04:53:46.542Z,63.36
2023-02-07T04:56:17.205Z,63.58
2023-02-07T04:58:47.913Z,63.16
2023-02-07T05:01:18.568Z,63.69
2023-02-07T05:03:49.313Z,63.60
2023-02-07T05:06:19.902Z,63.59
2023-02-07T05:08:50.903Z,63.81
2023-02-07T05:11:22.354Z,63.85
2023-02-07T05:13:53.073Z,63.81
2023-02-07T05:16:23.769Z,63.62
2023-02-07T05:19:17.348Z,63.75
2023-02-07T05:21:45.805Z,63.59
2023-02-07T05:24:16.534Z,63.64
2023-02-07T05:26:47.129Z,63.62
2023-02-07T05:29:17.962Z,63.33
2023-02-07T05:31:48.754Z,63.36
2023-02-07T05:34:18.124Z,63.60
2023-02-07T05:36:48.671Z,63.57
2023-02-07T05:39:19.368Z,63.41
2023-02-07T05:41:49.974Z,63.36
2023-02-07T05:44:20.700Z,63.50
2023-02-07T05:46:52.708Z,63.29
2023-02-07T05:49:23.543Z,63.54
2023-02-07T05:51:54.153Z,63.71
2023-02-07T05:54:24.970Z,63.30
2023-02-07T05:56:55.649Z,63.73
2023-02-07T05:59:26.278Z,63.71
2023-02-07T06:01:56.859Z,63.59
2023-02-07T06:04:27.887Z,63.60
2023-02-07T06:06:58.521Z,63.14
2023-02-07T06:09:29.312Z,63.25
2023-02-07T06:12:00.133Z,63.32
2023-02-07T06:14:30.889Z,63.27
2023-02-07T06:17:02.029Z,63.29
2023-02-07T06:19:32.719Z,63.20
2023-02-07T06:22:11.200Z,63.37
2023-02-07T06:24:50.350Z,63.37
2023-02-07T06:27:21.257Z,63.41
2023-02-07T06:29:52.112Z,63.38
2023-02-07T06:32:27.770Z,63.30
2023-02-07T06:35:01.386Z,63.46
2023-02-07T06:37:32.029Z,63.50
2023-02-07T06:40:02.821Z,63.47
2023-02-07T06:42:33.505Z,63.51
2023-02-07T06:45:06.301Z,63.60
2023-02-07T06:47:36.973Z,63.61
2023-02-07T06:50:15.113Z,63.58
2023-02-07T06:52:45.922Z,63.66
2023-02-07T06:55:17.031Z,63.52
2023-02-07T06:58:50.633Z,63.49
2023-02-07T07:01:00.960Z,63.60
2023-02-07T07:03:31.789Z,63.62
2023-02-07T07:06:02.626Z,63.43
2023-02-07T07:08:33.269Z,63.51
2023-02-07T07:11:04.177Z,63.44
2023-02-07T07:13:34.991Z,63.35
2023-02-07T07:16:07.680Z,63.37
2023-02-07T07:18:38.734Z,63.48
2023-02-07T07:21:08.272Z,63.38
2023-02-07T07:23:38.960Z,63.50
2023-02-07T07:26:09.701Z,63.51
2023-02-07T07:28:40.297Z,63.48
2023-02-07T07:31:13.967Z,63.53
2023-02-07T07:33:44.705Z,63.55
2023-02-07T07:36:15.488Z,63.80
2023-02-07T07:38:47.796Z,63.60
2023-02-07T07:41:18.937Z,63.49
2023-02-07T07:43:51.944Z,63.59
2023-02-07T07:46:22.992Z,63.39
2023-02-07T07:48:52.086Z,63.32
2023-02-07T07:51:22.747Z,63.56
2023-02-07T07:53:53.476Z,63.50
2023-02-07T07:56:24.254Z,63.52
2023-02-07T07:58:56.266Z,63.63
2023-02-07T08:01:28.708Z,63.60
2023-02-07T08:04:10.231Z,63.80
2023-02-07T08:06:41.102Z,63.88
2023-02-07T08:09:11.738Z,63.86
2023-02-07T08:11:43.656Z,63.90
2023-02-07T08:14:18.092Z,63.89
2023-02-07T08:17:21.960Z,63.89
2023-02-07T08:19:44.963Z,63.79
2023-02-07T08:22:15.657Z,64.01
2023-02-07T08:24:46.486Z,64.04
2023-02-07T08:27:17.135Z,63.83
2023-02-07T08:29:57.720Z,63.95
2023-02-07T08:32:28.586Z,63.85
2023-02-07T08:34:59.548Z,64.07
2023-02-07T08:37:31.382Z,64.02
2023-02-07T08:40:02.309Z,63.87
2023-02-07T08:42:33.475Z,63.70
2023-02-07T08:45:09.387Z,63.64
2023-02-07T08:47:40.495Z,63.44
2023-02-07T08:50:18.976Z,63.38
2023-02-07T08:52:50.710Z,63.38
2023-02-07T08:55:24.208Z,63.44
2023-02-07T08:57:55.054Z,63.35
2023-02-07T09:00:25.930Z,63.18
2023-02-07T09:02:56.646Z,63.26
2023-02-07T09:05:27.338Z,63.18
2023-02-07T09:08:02.385Z,63.20
2023-02-07T09:10:37.015Z,63.16
2023-02-07T09:13:07.722Z,63.06
2023-02-07T09:15:38.501Z,62.96
2023-02-07T09:18:10.956Z,62.85
2023-02-07T09:20:43.846Z,62.81
2023-02-07T09:23:14.533Z,62.60
2023-02-07T09:25:45.973Z,62.21
2023-02-07T09:28:17.030Z,62.39
2023-02-07T09:30:54.249Z,62.65
2023-02-07T09:33:25.524Z,62.64
2023-02-07T09:36:02.088Z,62.42
2023-02-07T09:38:33.064Z,62.30
2023-02-07T09:41:03.741Z,62.26
2023-02-07T09:43:47.672Z,62.16
2023-02-07T09:46:23.790Z,62.17
2023-02-07T09:49:02.412Z,62.13
2023-02-07T09:51:35.865Z,61.23
2023-02-07T09:54:15.233Z,61.14
2023-02-07T09:56:47.189Z,61.18
2023-02-07T09:59:24.655Z,60.78
2023-02-07T10:02:01.394Z,60.57
2023-02-07T10:04:48.615Z,60.62
2023-02-07T10:07:50.309Z,60.22
2023-02-07T10:10:18.232Z,59.52
2023-02-07T10:13:08.492Z,59.04
2023-02-07T10:15:53.706Z,59.92
2023-02-07T10:18:44.617Z,59.80
2023-02-07T10:21:25.244Z,60.05
2023-02-07T10:24:27.784Z,60.22
2023-02-07T10:27:06.066Z,60.27
2023-02-07T10:29:50.609Z,60.21
2023-02-07T10:32:33.926Z,60.27
2023-02-07T10:35:14.978Z,60.36
2023-02-07T10:38:12.258Z,59.75
2023-02-07T10:40:50.251Z,58.55
2023-02-07T10:43:28.864Z,59.39
2023-02-07T10:46:06.127Z,59.52
2023-02-07T10:48:38.663Z,58.90
2023-02-07T10:51:25.064Z,59.44
2023-02-07T10:54:07.718Z,59.41
2023-02-07T10:56:43.303Z,59.70
2023-02-07T10:59:35.732Z,59.90
2023-02-07T11:02:45.755Z,59.74
2023-02-07T11:05:50.754Z,59.71
2023-02-07T11:08:42.389Z,59.43
2023-02-07T11:11:31.404Z,59.57
2023-02-07T11:14:06.784Z,59.46
2023-02-07T11:16:43.178Z,59.29
2023-02-07T11:19:19.056Z,58.90
2023-02-07T11:21:51.900Z,59.07
2023-02-07T11:24:28.317Z,59.08
2023-02-07T11:27:07.050Z,59.01
2023-02-07T11:29:44.690Z,58.64
2023-02-07T11:32:17.020Z,58.76
2023-02-07T11:34:51.196Z,58.66
2023-02-07T11:37:28.138Z,58.80
2023-02-07T11:40:20.717Z,58.25
2023-02-07T11:42:57.699Z,58.65
2023-02-07T11:45:29.895Z,58.30
2023-02-07T11:48:01.806Z,58.27
2023-02-07T11:50:39.330Z,58.50
2023-02-07T11:53:45.310Z,58.41
2023-02-07T11:56:24.121Z,58.07
2023-02-07T11:58:55.654Z,58.29
2023-02-07T12:02:30.745Z,58.60
2023-02-07T12:05:25.264Z,58.00
2023-02-07T12:08:02.372Z,58.14
2023-02-07T12:10:36.739Z,57.81
2023-02-07T12:13:11.791Z,57.88
2023-02-07T12:15:47.822Z,58.12
2023-02-07T12:18:26.360Z,58.30
2023-02-07T12:21:02.374Z,58.33
2023-02-07T12:23:46.352Z,57.42
2023-02-07T12:26:22.874Z,56.96
2023-02-07T12:29:13.059Z,57.14
2023-02-07T12:31:51.169Z,57.66
2023-02-07T12:34:27.650Z,57.58
2023-02-07T12:37:05.511Z,58.05
2023-02-07T12:39:43.338Z,58.14
2023-02-07T12:42:29.752Z,58.08
2023-02-07T12:45:02.517Z,58.42
2023-02-07T12:47:48.757Z,58.89
2023-02-07T12:50:39.112Z,59.24
2023-02-07T12:53:21.904Z,59.30
2023-02-07T12:56:03.126Z,59.28
2023-02-07T12:58:41.702Z,59.63
2023-02-07T13:01:19.750Z,60.01
2023-02-07T13:04:25.092Z,60.14
2023-02-07T13:07:08.276Z,60.00
2023-02-07T13:09:46.247Z,60.10
2023-02-07T13:12:26.645Z,60.22
2023-02-07T13:15:09.829Z,60.20
2023-02-07T13:17:50.544Z,60.57
2023-02-07T13:20:33.041Z,60.75
2023-02-07T13:23:10.525Z,60.79
2023-02-07T13:25:44.521Z,60.93
2023-02-07T13:28:22.854Z,61.10
2023-02-07T13:30:54.874Z,61.10
2023-02-07T13:33:38.431Z,61.12
2023-02-07T13:36:17.850Z,61.16
2023-02-07T13:39:18.026Z,61.34
2023-02-07T13:42:07.938Z,61.23
2023-02-07T13:44:45.800Z,61.36
2023-02-07T13:47:44.328Z,61.30
2023-02-07T13:50:33.698Z,61.71
2023-02-07T13:53:12.207Z,61.64
2023-02-07T13:55:44.413Z,61.84
2023-02-07T13:58:45.612Z,61.73
2023-02-07T14:01:20.372Z,61.89
2023-02-07T14:04:14.853Z,61.92
2023-02-07T14:06:56.286Z,62.11
2023-02-07T14:09:33.686Z,62.18
2023-02-07T14:12:07.287Z,62.10
2023-02-07T14:14:39.243Z,62.15
2023-02-07T14:17:13.855Z,62.42
2023-02-07T14:19:52.798Z,62.51
2023-02-07T14:22:26.619Z,62.44
2023-02-07T14:25:40.756Z,62.36
2023-02-07T14:28:32.463Z,62.50
2023-02-07T14:31:23.305Z,62.34
2023-02-07T14:34:14.777Z,62.47
2023-02-07T14:36:45.529Z,62.51
2023-02-07T14:39:33.355Z,62.30
2023-02-07T14:42:16.342Z,62.37
2023-02-07T14:44:48.434Z,62.16
2023-02-07T14:47:25.293Z,62.34
2023-02-07T14:49:58.498Z,62.47
2023-02-07T14:53:03.664Z,62.48
2023-02-07T14:55:45.730Z,62.70
2023-02-07T14:58:26.395Z,62.64
2023-02-07T15:01:00.629Z,62.81
2023-02-07T15:03:34.816Z,62.81
2023-02-07T15:06:23.814Z,62.87
2023-02-07T15:09:02.636Z,63.00
2023-02-07T15:11:32.311Z,63.17
2023-02-07T15:14:05.356Z,63.16
2023-02-07T15:16:36.927Z,63.31
2023-02-07T15:19:14.992Z,63.27
2023-02-07T15:21:47.962Z,63.49
2023-02-07T15:24:23.645Z,63.53
2023-02-07T15:26:58.511Z,63.60
2023-02-07T15:29:31.396Z,63.38
2023-02-07T15:32:11.731Z,63.41
2023-02-07T15:34:44.766Z,63.53
2023-02-07T15:37:19.529Z,63.41
2023-02-07T15:39:52.003Z,63.35
2023-02-07T15:42:23.429Z,63.43
2023-02-07T15:44:58.123Z,63.32
2023-02-07T15:47:36.783Z,63.41
2023-02-07T15:50:23.146Z,63.26
2023-02-07T15:52:56.499Z,63.52
2023-02-07T15:55:32.729Z,63.49
2023-02-07T15:58:04.654Z,63.42
2023-02-07T16:00:40.039Z,63.43
2023-02-07T16:03:18.556Z,63.59
2023-02-07T16:05:49.719Z,63.73
2023-02-07T16:08:30.616Z,63.73
2023-02-07T16:11:19.937Z,63.91
2023-02-07T16:13:54.088Z,64.10
2023-02-07T16:16:27.495Z,64.26
2023-02-07T16:19:08.350Z,64.28
2023-02-07T16:21:38.952Z,64.31
2023-02-07T16:24:14.917Z,64.37
2023-02-07T16:26:46.712Z,64.36
2023-02-07T16:29:22.653Z,64.33
2023-02-07T16:31:54.233Z,64.26
2023-02-07T16:34:25.451Z,64.53
2023-02-07T16:36:55.161Z,64.42
2023-02-07T16:39:25.876Z,64.52
2023-02-07T16:42:02.728Z,64.62
2023-02-07T16:44:35.602Z,64.55
2023-02-07T16:47:06.546Z,64.59
2023-02-07T16:49:39.768Z,64.42
2023-02-07T16:52:10.576Z,64.49
2023-02-07T16:54:41.564Z,64.40
2023-02-07T16:57:44.936Z,64.56
2023-02-07T17:00:16.777Z,64.62
2023-02-07T17:02:47.867Z,64.70
2023-02-07T17:05:20.046Z,64.68
2023-02-07T17:07:51.207Z,64.63
2023-02-07T17:10:32.775Z,64.71
2023-02-07T17:13:03.525Z,64.76
2023-02-07T17:15:34.782Z,64.94
2023-02-07T17:18:06.093Z,64.92
2023-02-07T17:20:36.905Z,65.02
2023-02-07T17:23:09.437Z,65.02
2023-02-07T17:25:46.779Z,65.14
2023-02-07T17:28:17.767Z,65.36
2023-02-07T17:30:48.473Z,65.38
2023-02-07T17:33:19.314Z,65.16
2023-02-07T17:35:50.126Z,65.11
2023-02-07T17:38:20.758Z,64.83
2023-02-07T17:40:51.398Z,65.20
2023-02-07T17:43:23.287Z,65.44
2023-02-07T17:45:56.882Z,65.49
2023-02-07T17:48:27.716Z,65.78
2023-02-07T17:50:58.669Z,65.33
2023-02-07T17:53:29.818Z,65.27
2023-02-07T17:56:00.581Z,65.85
2023-02-07T17:58:31.552Z,65.88
2023-02-07T18:01:02.690Z,66.03
2023-02-07T18:03:33.615Z,66.07
2023-02-07T18:06:11.264Z,66.18
2023-02-07T18:08:42.578Z,66.29
2023-02-07T18:11:13.955Z,66.13
2023-02-07T18:13:47.190Z,66.32
2023-02-07T18:16:20.048Z,66.41
2023-02-07T18:18:52.154Z,66.58
2023-02-07T18:21:26.256Z,66.79
2023-02-07T18:23:57.115Z,66.83
2023-02-07T18:26:28.082Z,66.95
2023-02-07T18:28:57.454Z,66.91
2023-02-07T18:31:28.673Z,67.09
2023-02-07T18:33:59.522Z,67.36
2023-02-07T18:36:30.388Z,67.41
2023-02-07T18:39:01.302Z,67.53
2023-02-07T18:41:32.107Z,67.44
2023-02-07T18:44:02.691Z,67.45
2023-02-07T18:46:33.411Z,67.47
2023-02-07T18:49:04.398Z,67.20
2023-02-07T18:51:55.228Z,67.31
2023-02-07T18:54:31.848Z,67.61
2023-02-07T18:57:02.640Z,67.60
2023-02-07T18:59:37.092Z,67.39
2023-02-07T19:02:08.247Z,67.30
2023-02-07T19:04:37.299Z,67.46
2023-02-07T19:07:07.923Z,67.61
2023-02-07T19:09:38.593Z,67.74
2023-02-07T19:12:33.240Z,67.69
2023-02-07T19:15:24.800Z,67.68
2023-02-07T19:17:51.133Z,67.46
2023-02-07T19:20:21.760Z,67.23
2023-02-07T19:22:52.389Z,67.12
2023-02-07T19:25:23.009Z,67.16
2023-02-07T19:27:53.949Z,67.29
2023-02-07T19:30:25.014Z,66.83
2023-02-07T19:32:55.647Z,67.25
2023-02-07T19:35:26.227Z,67.00
2023-02-07T19:38:01.102Z,67.04
2023-02-07T19:40:31.873Z,67.55
2023-02-07T19:43:23.250Z,67.81
2023-02-07T19:45:54.548Z,67.91
2023-02-07T19:48:23.766Z,68.30
2023-02-07T19:51:01.316Z,68.27
2023-02-07T19:53:32.944Z,68.47
2023-02-07T19:56:05.701Z,68.24
2023-02-07T19:58:40.006Z,68.18
2023-02-07T20:01:11.963Z,68.17
2023-02-07T20:03:43.764Z,68.34
2023-02-07T20:06:15.420Z,68.30
2023-02-07T20:08:46.082Z,68.09
2023-02-07T20:11:18.933Z,68.15
2023-02-07T20:13:52.838Z,68.18
2023-02-07T20:16:25.741Z,68.18
2023-02-07T20:18:56.986Z,68.49
2023-02-07T20:21:27.488Z,68.46
2023-02-07T20:23:59.833Z,68.43
2023-02-07T20:26:32.984Z,68.56
2023-02-07T20:29:07.362Z,68.43
2023-02-07T20:31:40.667Z,68.54
2023-02-07T20:34:11.820Z,68.63
2023-02-07T20:36:41.528Z,68.74
2023-02-07T20:39:14.993Z,69.00
2023-02-07T20:41:46.247Z,69.14
2023-02-07T20:44:22.072Z,69.13
2023-02-07T20:46:53.400Z,68.90
2023-02-07T20:49:28.678Z,68.76
2023-02-07T20:52:00.390Z,68.62
2023-02-07T20:54:32.102Z,68.66
2023-02-07T20:57:02.884Z,68.49
2023-02-07T20:59:52.505Z,68.33
2023-02-07T21:02:23.191Z,68.32
2023-02-07T21:04:53.910Z,68.51
2023-02-07T21:07:24.871Z,68.22
2023-02-07T21:09:57.670Z,68.46
2023-02-07T21:12:30.676Z,68.56
2023-02-07T21:15:02.604Z,68.42
2023-02-07T21:17:33.274Z,68.62
2023-02-07T21:23:02.978Z,68.16
2023-02-07T21:25:33.740Z,68.11
2023-02-07T21:28:04.480Z,68.24
2023-02-07T21:30:36.059Z,68.31
2023-02-07T21:33:07.621Z,68.39
2023-02-07T21:35:48.235Z,68.41
2023-02-07T21:38:18.974Z,68.32
2023-02-07T21:40:49.778Z,68.26
2023-02-07T21:43:20.448Z,68.24
2023-02-07T21:45:51.178Z,68.24
2023-02-07T21:48:21.876Z,68.21
2023-02-07T21:50:52.782Z,68.21
2023-02-07T21:53:23.376Z,68.30
2023-02-07T21:55:54.062Z,68.44
2023-02-07T21:58:26.688Z,68.28
2023-02-07T22:01:03.953Z,68.38
2023-02-07T22:03:34.663Z,68.29
2023-02-07T22:06:06.369Z,68.28
2023-02-07T22:08:38.467Z,68.19
2023-02-07T22:11:11.063Z,68.13
2023-02-07T22:13:45.881Z,68.18
2023-02-07T22:16:17.525Z,68.33
2023-02-07T22:18:48.458Z,68.43
2023-02-07T22:21:23.209Z,68.37
2023-02-07T22:23:55.247Z,68.45
2023-02-07T22:26:27.208Z,68.28
2023-02-07T22:28:58.500Z,68.45
2023-02-07T22:31:31.333Z,68.60
2023-02-07T22:34:04.227Z,68.76
2023-02-07T22:36:37.598Z,68.90
2023-02-07T22:39:09.304Z,69.49
2023-02-07T22:41:42.018Z,69.10
2023-02-07T22:44:12.858Z,69.41
2023-02-07T22:46:43.577Z,69.44
2023-02-07T22:49:14.310Z,69.62
2023-02-07T22:51:45.009Z,70.09
2023-02-07T22:54:17.604Z,70.24
2023-02-07T22:56:48.580Z,70.13
2023-02-07T22:59:19.230Z,70.15
2023-02-07T23:01:50.613Z,70.11
2023-02-07T23:04:21.362Z,70.06
2023-02-07T23:06:52.965Z,70.05
2023-02-07T23:09:23.703Z,70.10
2023-02-07T23:11:54.447Z,70.07
2023-02-07T23:14:25.374Z,70.06
2023-02-07T23:16:54.637Z,69.96
2023-02-07T23:19:25.626Z,69.80
2023-02-07T23:22:01.022Z,69.61
2023-02-07T23:24:31.678Z,69.58
2023-02-07T23:27:02.683Z,69.29
2023-02-07T23:29:33.900Z,69.30
2023-02-07T23:32:03.000Z,69.22
2023-02-07T23:34:34.139Z,69.13
2023-02-07T23:37:03.249Z,68.95
2023-02-07T23:39:33.860Z,69.06
2023-02-07T23:42:04.638Z,68.81
2023-02-07T23:44:35.340Z,68.62
2023-02-07T23:47:05.156Z,68.69
2023-02-07T23:49:36.569Z,68.68
2023-02-07T23:52:07.334Z,68.48
2023-02-07T23:54:38.151Z,68.32
2023-02-07T23:57:09.159Z,68.08
2023-02-07T23:59:42.734Z,68.11
